sensor_id;sensor_type;location;lat;lon;timestamp;P1;durP1;ratioP1;P2;durP2;ratioP2
17725;SDS011;8983;53.156;17.960;2023-03-05T00:01:38;12.20;;;5.47;;
17725;SDS011;8983;53.156;17.960;2023-03-05T00:04:08;11.50;;;4.83;;
17725;SDS011;8983;53.156;17.960;2023-03-05T00:06:39;12.37;;;5.43;;
17725;SDS011;8983;53.156;17.960;2023-03-05T00:09:07;11.20;;;5.40;;
17725;SDS011;8983;53.156;17.960;2023-03-05T00:11:36;12.57;;;5.20;;
17725;SDS011;8983;53.156;17.960;2023-03-05T00:14:06;14.50;;;5.70;;
17725;SDS011;8983;53.156;17.960;2023-03-05T00:16:34;12.50;;;5.50;;
17725;SDS011;8983;53.156;17.960;2023-03-05T00:19:02;37.20;;;12.43;;
17725;SDS011;8983;53.156;17.960;2023-03-05T00:21:31;14.37;;;6.67;;
17725;SDS011;8983;53.156;17.960;2023-03-05T00:24:01;25.60;;;8.33;;
17725;SDS011;8983;53.156;17.960;2023-03-05T00:26:31;13.03;;;6.00;;
17725;SDS011;8983;53.156;17.960;2023-03-05T00:29:03;23.30;;;6.60;;
17725;SDS011;8983;53.156;17.960;2023-03-05T00:31:33;22.00;;;7.77;;
17725;SDS011;8983;53.156;17.960;2023-03-05T00:34:03;15.30;;;6.43;;
17725;SDS011;8983;53.156;17.960;2023-03-05T00:36:32;13.20;;;5.87;;
17725;SDS011;8983;53.156;17.960;2023-03-05T00:39:00;9.87;;;5.03;;
17725;SDS011;8983;53.156;17.960;2023-03-05T00:41:29;22.87;;;8.93;;
17725;SDS011;8983;53.156;17.960;2023-03-05T00:43:57;22.90;;;8.13;;
17725;SDS011;8983;53.156;17.960;2023-03-05T00:46:26;19.90;;;7.57;;
17725;SDS011;8983;53.156;17.960;2023-03-05T00:48:55;22.20;;;8.50;;
17725;SDS011;8983;53.156;17.960;2023-03-05T00:51:23;21.90;;;7.17;;
17725;SDS011;8983;53.156;17.960;2023-03-05T00:53:52;10.87;;;6.33;;
17725;SDS011;8983;53.156;17.960;2023-03-05T00:56:20;13.43;;;6.30;;
17725;SDS011;8983;53.156;17.960;2023-03-05T00:58:49;16.13;;;6.13;;
17725;SDS011;8983;53.156;17.960;2023-03-05T01:01:18;13.13;;;6.00;;
17725;SDS011;8983;53.156;17.960;2023-03-05T01:03:48;24.13;;;9.00;;
17725;SDS011;8983;53.156;17.960;2023-03-05T01:06:16;11.87;;;5.80;;
17725;SDS011;8983;53.156;17.960;2023-03-05T01:08:45;10.60;;;5.47;;
17725;SDS011;8983;53.156;17.960;2023-03-05T01:11:13;21.87;;;7.00;;
17725;SDS011;8983;53.156;17.960;2023-03-05T01:13:41;10.07;;;5.23;;
17725;SDS011;8983;53.156;17.960;2023-03-05T01:16:09;24.17;;;11.53;;
17725;SDS011;8983;53.156;17.960;2023-03-05T01:18:38;14.93;;;6.43;;
17725;SDS011;8983;53.156;17.960;2023-03-05T01:21:08;10.57;;;5.63;;
17725;SDS011;8983;53.156;17.960;2023-03-05T01:23:37;10.00;;;5.30;;
17725;SDS011;8983;53.156;17.960;2023-03-05T01:26:05;14.10;;;6.20;;
17725;SDS011;8983;53.156;17.960;2023-03-05T01:28:34;18.73;;;5.97;;
17725;SDS011;8983;53.156;17.960;2023-03-05T01:31:06;14.70;;;6.70;;
17725;SDS011;8983;53.156;17.960;2023-03-05T01:33:34;10.30;;;5.03;;
17725;SDS011;8983;53.156;17.960;2023-03-05T01:36:05;7.97;;;4.47;;
17725;SDS011;8983;53.156;17.960;2023-03-05T01:38:38;7.67;;;3.90;;
17725;SDS011;8983;53.156;17.960;2023-03-05T01:41:07;6.27;;;3.90;;
17725;SDS011;8983;53.156;17.960;2023-03-05T01:43:36;12.10;;;4.93;;
17725;SDS011;8983;53.156;17.960;2023-03-05T01:49:08;10.80;;;5.43;;
17725;SDS011;8983;53.156;17.960;2023-03-05T01:51:44;12.33;;;4.97;;
17725;SDS011;8983;53.156;17.960;2023-03-05T01:54:18;6.63;;;3.83;;
17725;SDS011;8983;53.156;17.960;2023-03-05T01:56:49;9.83;;;4.33;;
17725;SDS011;8983;53.156;17.960;2023-03-05T01:59:20;10.10;;;4.40;;
17725;SDS011;8983;53.156;17.960;2023-03-05T02:01:50;12.27;;;6.37;;
17725;SDS011;8983;53.156;17.960;2023-03-05T02:04:22;6.87;;;3.77;;
17725;SDS011;8983;53.156;17.960;2023-03-05T02:06:57;10.90;;;5.30;;
17725;SDS011;8983;53.156;17.960;2023-03-05T02:09:26;8.37;;;4.80;;
17725;SDS011;8983;53.156;17.960;2023-03-05T02:11:54;5.00;;;3.37;;
17725;SDS011;8983;53.156;17.960;2023-03-05T02:14:23;6.40;;;3.57;;
17725;SDS011;8983;53.156;17.960;2023-03-05T02:16:52;5.43;;;3.20;;
17725;SDS011;8983;53.156;17.960;2023-03-05T02:19:20;6.90;;;3.90;;
17725;SDS011;8983;53.156;17.960;2023-03-05T02:21:49;8.33;;;4.00;;
17725;SDS011;8983;53.156;17.960;2023-03-05T02:24:18;8.90;;;3.77;;
17725;SDS011;8983;53.156;17.960;2023-03-05T02:27:00;6.70;;;3.47;;
17725;SDS011;8983;53.156;17.960;2023-03-05T02:29:31;3.70;;;2.63;;
17725;SDS011;8983;53.156;17.960;2023-03-05T02:32:00;3.87;;;3.20;;
17725;SDS011;8983;53.156;17.960;2023-03-05T02:34:29;9.33;;;3.57;;
17725;SDS011;8983;53.156;17.960;2023-03-05T02:36:58;6.50;;;3.23;;
17725;SDS011;8983;53.156;17.960;2023-03-05T02:39:28;6.97;;;3.30;;
17725;SDS011;8983;53.156;17.960;2023-03-05T02:41:56;6.00;;;3.23;;
17725;SDS011;8983;53.156;17.960;2023-03-05T02:44:24;6.27;;;3.70;;
17725;SDS011;8983;53.156;17.960;2023-03-05T02:46:53;6.07;;;3.60;;
17725;SDS011;8983;53.156;17.960;2023-03-05T02:49:21;6.03;;;3.23;;
17725;SDS011;8983;53.156;17.960;2023-03-05T02:51:49;8.70;;;3.97;;
17725;SDS011;8983;53.156;17.960;2023-03-05T02:54:18;9.53;;;3.83;;
17725;SDS011;8983;53.156;17.960;2023-03-05T02:56:47;5.30;;;3.70;;
17725;SDS011;8983;53.156;17.960;2023-03-05T02:59:15;5.33;;;3.73;;
17725;SDS011;8983;53.156;17.960;2023-03-05T03:01:43;7.20;;;3.43;;
17725;SDS011;8983;53.156;17.960;2023-03-05T03:04:11;5.33;;;3.80;;
17725;SDS011;8983;53.156;17.960;2023-03-05T03:06:39;4.37;;;2.83;;
17725;SDS011;8983;53.156;17.960;2023-03-05T03:09:07;3.90;;;2.90;;
17725;SDS011;8983;53.156;17.960;2023-03-05T03:11:37;5.30;;;3.50;;
17725;SDS011;8983;53.156;17.960;2023-03-05T03:14:05;5.80;;;3.50;;
17725;SDS011;8983;53.156;17.960;2023-03-05T03:16:33;5.57;;;3.50;;
17725;SDS011;8983;53.156;17.960;2023-03-05T03:19:01;4.90;;;3.70;;
17725;SDS011;8983;53.156;17.960;2023-03-05T03:21:29;3.80;;;3.27;;
17725;SDS011;8983;53.156;17.960;2023-03-05T03:23:58;6.10;;;3.60;;
17725;SDS011;8983;53.156;17.960;2023-03-05T03:26:26;5.13;;;3.47;;
17725;SDS011;8983;53.156;17.960;2023-03-05T03:28:57;4.17;;;3.20;;
17725;SDS011;8983;53.156;17.960;2023-03-05T03:31:25;4.37;;;3.13;;
17725;SDS011;8983;53.156;17.960;2023-03-05T03:33:53;4.93;;;3.00;;
17725;SDS011;8983;53.156;17.960;2023-03-05T03:36:22;5.23;;;3.60;;
17725;SDS011;8983;53.156;17.960;2023-03-05T03:38:50;7.07;;;3.30;;
17725;SDS011;8983;53.156;17.960;2023-03-05T03:41:18;4.73;;;3.57;;
17725;SDS011;8983;53.156;17.960;2023-03-05T03:43:46;3.70;;;2.93;;
17725;SDS011;8983;53.156;17.960;2023-03-05T03:46:16;6.10;;;3.70;;
17725;SDS011;8983;53.156;17.960;2023-03-05T03:48:44;7.67;;;3.30;;
17725;SDS011;8983;53.156;17.960;2023-03-05T03:51:15;4.07;;;3.00;;
17725;SDS011;8983;53.156;17.960;2023-03-05T03:53:44;8.57;;;4.57;;
17725;SDS011;8983;53.156;17.960;2023-03-05T03:56:12;4.13;;;3.20;;
17725;SDS011;8983;53.156;17.960;2023-03-05T03:58:40;7.80;;;3.27;;
17725;SDS011;8983;53.156;17.960;2023-03-05T04:01:08;4.57;;;2.80;;
17725;SDS011;8983;53.156;17.960;2023-03-05T04:03:37;5.57;;;3.87;;
17725;SDS011;8983;53.156;17.960;2023-03-05T04:06:06;7.47;;;3.50;;
17725;SDS011;8983;53.156;17.960;2023-03-05T04:08:35;7.30;;;3.60;;
17725;SDS011;8983;53.156;17.960;2023-03-05T04:11:04;5.20;;;3.30;;
17725;SDS011;8983;53.156;17.960;2023-03-05T04:13:32;6.93;;;3.83;;
17725;SDS011;8983;53.156;17.960;2023-03-05T04:16:01;6.30;;;3.60;;
17725;SDS011;8983;53.156;17.960;2023-03-05T04:18:29;4.87;;;3.27;;
17725;SDS011;8983;53.156;17.960;2023-03-05T04:21:00;9.20;;;4.17;;
17725;SDS011;8983;53.156;17.960;2023-03-05T04:23:28;11.07;;;3.70;;
17725;SDS011;8983;53.156;17.960;2023-03-05T04:25:56;8.00;;;3.80;;
17725;SDS011;8983;53.156;17.960;2023-03-05T04:28:24;8.57;;;4.37;;
17725;SDS011;8983;53.156;17.960;2023-03-05T04:30:53;8.13;;;3.67;;
17725;SDS011;8983;53.156;17.960;2023-03-05T04:33:21;6.63;;;3.90;;
17725;SDS011;8983;53.156;17.960;2023-03-05T04:35:50;8.17;;;3.50;;
17725;SDS011;8983;53.156;17.960;2023-03-05T04:38:20;5.40;;;3.40;;
17725;SDS011;8983;53.156;17.960;2023-03-05T04:40:48;6.57;;;3.47;;
17725;SDS011;8983;53.156;17.960;2023-03-05T04:43:16;5.97;;;3.20;;
17725;SDS011;8983;53.156;17.960;2023-03-05T04:45:44;5.33;;;2.97;;
17725;SDS011;8983;53.156;17.960;2023-03-05T04:48:12;5.47;;;3.30;;
17725;SDS011;8983;53.156;17.960;2023-03-05T04:50:42;4.60;;;3.13;;
17725;SDS011;8983;53.156;17.960;2023-03-05T04:53:10;4.27;;;2.93;;
17725;SDS011;8983;53.156;17.960;2023-03-05T04:55:39;5.20;;;3.47;;
17725;SDS011;8983;53.156;17.960;2023-03-05T04:58:08;6.37;;;3.73;;
17725;SDS011;8983;53.156;17.960;2023-03-05T05:00:36;5.93;;;3.93;;
17725;SDS011;8983;53.156;17.960;2023-03-05T05:03:05;11.17;;;4.53;;
17725;SDS011;8983;53.156;17.960;2023-03-05T05:05:33;6.73;;;4.33;;
17725;SDS011;8983;53.156;17.960;2023-03-05T05:08:02;7.43;;;4.83;;
17725;SDS011;8983;53.156;17.960;2023-03-05T05:10:30;8.83;;;4.00;;
17725;SDS011;8983;53.156;17.960;2023-03-05T05:13:00;7.47;;;4.07;;
17725;SDS011;8983;53.156;17.960;2023-03-05T05:15:28;8.03;;;4.00;;
17725;SDS011;8983;53.156;17.960;2023-03-05T05:17:57;10.00;;;4.30;;
17725;SDS011;8983;53.156;17.960;2023-03-05T05:20:25;6.60;;;3.43;;
17725;SDS011;8983;53.156;17.960;2023-03-05T05:22:54;7.33;;;4.00;;
17725;SDS011;8983;53.156;17.960;2023-03-05T05:25:22;4.37;;;3.20;;
17725;SDS011;8983;53.156;17.960;2023-03-05T05:27:50;10.00;;;4.10;;
17725;SDS011;8983;53.156;17.960;2023-03-05T05:30:19;9.57;;;4.10;;
17725;SDS011;8983;53.156;17.960;2023-03-05T05:32:47;4.13;;;3.20;;
17725;SDS011;8983;53.156;17.960;2023-03-05T05:35:16;6.57;;;3.67;;
17725;SDS011;8983;53.156;17.960;2023-03-05T05:37:44;7.93;;;3.57;;
17725;SDS011;8983;53.156;17.960;2023-03-05T05:40:12;7.33;;;3.83;;
17725;SDS011;8983;53.156;17.960;2023-03-05T05:42:41;6.70;;;3.37;;
17725;SDS011;8983;53.156;17.960;2023-03-05T05:45:10;3.30;;;3.00;;
17725;SDS011;8983;53.156;17.960;2023-03-05T05:47:39;5.17;;;3.13;;
17725;SDS011;8983;53.156;17.960;2023-03-05T05:50:09;6.07;;;3.57;;
17725;SDS011;8983;53.156;17.960;2023-03-05T05:52:38;3.23;;;2.90;;
17725;SDS011;8983;53.156;17.960;2023-03-05T05:55:06;6.00;;;3.03;;
17725;SDS011;8983;53.156;17.960;2023-03-05T05:57:35;4.57;;;2.90;;
17725;SDS011;8983;53.156;17.960;2023-03-05T06:00:04;3.97;;;2.63;;
17725;SDS011;8983;53.156;17.960;2023-03-05T06:02:37;4.73;;;3.00;;
17725;SDS011;8983;53.156;17.960;2023-03-05T06:05:10;4.10;;;2.73;;
17725;SDS011;8983;53.156;17.960;2023-03-05T06:07:41;5.13;;;3.10;;
17725;SDS011;8983;53.156;17.960;2023-03-05T06:10:09;7.90;;;4.40;;
17725;SDS011;8983;53.156;17.960;2023-03-05T06:12:38;7.73;;;3.97;;
17725;SDS011;8983;53.156;17.960;2023-03-05T06:15:07;8.30;;;4.27;;
17725;SDS011;8983;53.156;17.960;2023-03-05T06:17:35;6.43;;;3.33;;
17725;SDS011;8983;53.156;17.960;2023-03-05T06:20:04;5.87;;;3.50;;
17725;SDS011;8983;53.156;17.960;2023-03-05T06:22:36;7.00;;;3.67;;
17725;SDS011;8983;53.156;17.960;2023-03-05T06:25:05;4.77;;;3.43;;
17725;SDS011;8983;53.156;17.960;2023-03-05T06:27:34;6.33;;;3.73;;
17725;SDS011;8983;53.156;17.960;2023-03-05T06:30:03;9.30;;;3.33;;
17725;SDS011;8983;53.156;17.960;2023-03-05T06:32:32;3.37;;;3.00;;
17725;SDS011;8983;53.156;17.960;2023-03-05T06:35:01;6.77;;;3.60;;
17725;SDS011;8983;53.156;17.960;2023-03-05T06:37:29;5.70;;;3.97;;
17725;SDS011;8983;53.156;17.960;2023-03-05T06:39:59;7.27;;;4.37;;
17725;SDS011;8983;53.156;17.960;2023-03-05T06:42:27;8.67;;;4.47;;
17725;SDS011;8983;53.156;17.960;2023-03-05T06:44:55;9.77;;;4.70;;
17725;SDS011;8983;53.156;17.960;2023-03-05T06:47:23;8.50;;;5.17;;
17725;SDS011;8983;53.156;17.960;2023-03-05T06:49:51;7.00;;;4.20;;
17725;SDS011;8983;53.156;17.960;2023-03-05T06:52:20;7.03;;;4.20;;
17725;SDS011;8983;53.156;17.960;2023-03-05T06:54:48;6.10;;;4.33;;
17725;SDS011;8983;53.156;17.960;2023-03-05T06:57:17;6.47;;;4.60;;
17725;SDS011;8983;53.156;17.960;2023-03-05T06:59:45;6.73;;;4.00;;
17725;SDS011;8983;53.156;17.960;2023-03-05T07:02:14;7.33;;;4.47;;
17725;SDS011;8983;53.156;17.960;2023-03-05T07:04:44;7.17;;;4.80;;
17725;SDS011;8983;53.156;17.960;2023-03-05T07:07:13;9.33;;;5.83;;
17725;SDS011;8983;53.156;17.960;2023-03-05T07:09:41;10.30;;;5.50;;
17725;SDS011;8983;53.156;17.960;2023-03-05T07:12:11;10.27;;;5.37;;
17725;SDS011;8983;53.156;17.960;2023-03-05T07:14:40;11.67;;;5.97;;
17725;SDS011;8983;53.156;17.960;2023-03-05T07:17:08;13.47;;;6.23;;
17725;SDS011;8983;53.156;17.960;2023-03-05T07:19:36;12.20;;;6.00;;
17725;SDS011;8983;53.156;17.960;2023-03-05T07:22:05;10.50;;;5.97;;
17725;SDS011;8983;53.156;17.960;2023-03-05T07:24:33;10.33;;;5.40;;
17725;SDS011;8983;53.156;17.960;2023-03-05T07:27:02;10.23;;;5.93;;
17725;SDS011;8983;53.156;17.960;2023-03-05T07:29:30;9.53;;;6.03;;
17725;SDS011;8983;53.156;17.960;2023-03-05T07:32:00;10.80;;;6.00;;
17725;SDS011;8983;53.156;17.960;2023-03-05T07:34:28;14.30;;;7.17;;
17725;SDS011;8983;53.156;17.960;2023-03-05T07:36:56;9.40;;;5.53;;
17725;SDS011;8983;53.156;17.960;2023-03-05T07:39:24;13.77;;;7.87;;
17725;SDS011;8983;53.156;17.960;2023-03-05T07:41:53;9.67;;;6.40;;
17725;SDS011;8983;53.156;17.960;2023-03-05T07:44:21;7.13;;;5.43;;
17725;SDS011;8983;53.156;17.960;2023-03-05T07:46:49;10.43;;;6.57;;
17725;SDS011;8983;53.156;17.960;2023-03-05T07:49:19;7.33;;;5.77;;
17725;SDS011;8983;53.156;17.960;2023-03-05T07:51:49;10.90;;;5.93;;
17725;SDS011;8983;53.156;17.960;2023-03-05T07:54:17;8.90;;;5.67;;
17725;SDS011;8983;53.156;17.960;2023-03-05T07:56:45;7.77;;;5.40;;
17725;SDS011;8983;53.156;17.960;2023-03-05T07:59:14;11.67;;;5.60;;
17725;SDS011;8983;53.156;17.960;2023-03-05T08:01:42;8.23;;;5.00;;
17725;SDS011;8983;53.156;17.960;2023-03-05T08:04:11;7.67;;;4.70;;
17725;SDS011;8983;53.156;17.960;2023-03-05T08:06:41;10.37;;;4.97;;
17725;SDS011;8983;53.156;17.960;2023-03-05T08:09:09;7.53;;;4.97;;
17725;SDS011;8983;53.156;17.960;2023-03-05T08:11:38;8.37;;;5.17;;
17725;SDS011;8983;53.156;17.960;2023-03-05T08:14:06;10.43;;;5.23;;
17725;SDS011;8983;53.156;17.960;2023-03-05T08:16:34;11.17;;;5.63;;
17725;SDS011;8983;53.156;17.960;2023-03-05T08:19:02;8.97;;;5.27;;
17725;SDS011;8983;53.156;17.960;2023-03-05T08:21:31;8.73;;;5.50;;
17725;SDS011;8983;53.156;17.960;2023-03-05T08:24:03;12.23;;;6.40;;
17725;SDS011;8983;53.156;17.960;2023-03-05T08:26:33;12.80;;;6.17;;
17725;SDS011;8983;53.156;17.960;2023-03-05T08:29:03;8.83;;;5.77;;
17725;SDS011;8983;53.156;17.960;2023-03-05T08:31:31;8.07;;;5.70;;
17725;SDS011;8983;53.156;17.960;2023-03-05T08:34:00;7.60;;;5.87;;
17725;SDS011;8983;53.156;17.960;2023-03-05T08:36:29;11.47;;;6.20;;
17725;SDS011;8983;53.156;17.960;2023-03-05T08:38:57;9.30;;;6.67;;
17725;SDS011;8983;53.156;17.960;2023-03-05T08:41:27;8.67;;;6.77;;
17725;SDS011;8983;53.156;17.960;2023-03-05T08:43:55;9.43;;;5.50;;
17725;SDS011;8983;53.156;17.960;2023-03-05T08:46:24;12.17;;;6.40;;
17725;SDS011;8983;53.156;17.960;2023-03-05T08:48:52;7.50;;;5.67;;
17725;SDS011;8983;53.156;17.960;2023-03-05T08:51:21;13.50;;;7.70;;
17725;SDS011;8983;53.156;17.960;2023-03-05T08:53:51;10.27;;;6.23;;
17725;SDS011;8983;53.156;17.960;2023-03-05T08:56:20;8.93;;;6.00;;
17725;SDS011;8983;53.156;17.960;2023-03-05T08:58:49;8.43;;;5.20;;
17725;SDS011;8983;53.156;17.960;2023-03-05T09:01:18;9.83;;;5.90;;
17725;SDS011;8983;53.156;17.960;2023-03-05T09:03:48;8.50;;;5.23;;
17725;SDS011;8983;53.156;17.960;2023-03-05T09:06:16;9.67;;;5.83;;
17725;SDS011;8983;53.156;17.960;2023-03-05T09:08:44;8.20;;;5.07;;
17725;SDS011;8983;53.156;17.960;2023-03-05T09:11:12;8.70;;;6.23;;
17725;SDS011;8983;53.156;17.960;2023-03-05T09:13:41;12.77;;;5.97;;
17725;SDS011;8983;53.156;17.960;2023-03-05T09:16:11;15.50;;;7.23;;
17725;SDS011;8983;53.156;17.960;2023-03-05T09:18:41;12.07;;;6.80;;
17725;SDS011;8983;53.156;17.960;2023-03-05T09:21:10;10.40;;;7.10;;
17725;SDS011;8983;53.156;17.960;2023-03-05T09:23:39;9.57;;;7.07;;
17725;SDS011;8983;53.156;17.960;2023-03-05T09:26:09;11.97;;;6.73;;
17725;SDS011;8983;53.156;17.960;2023-03-05T09:28:38;11.43;;;6.97;;
17725;SDS011;8983;53.156;17.960;2023-03-05T09:31:07;10.63;;;6.87;;
17725;SDS011;8983;53.156;17.960;2023-03-05T09:33:37;11.10;;;6.07;;
17725;SDS011;8983;53.156;17.960;2023-03-05T09:36:14;9.20;;;5.70;;
17725;SDS011;8983;53.156;17.960;2023-03-05T09:38:44;11.33;;;5.80;;
17725;SDS011;8983;53.156;17.960;2023-03-05T09:41:14;9.07;;;6.17;;
17725;SDS011;8983;53.156;17.960;2023-03-05T09:43:50;10.10;;;6.53;;
17725;SDS011;8983;53.156;17.960;2023-03-05T09:46:28;6.90;;;5.17;;
17725;SDS011;8983;53.156;17.960;2023-03-05T09:49:09;9.07;;;5.63;;
17725;SDS011;8983;53.156;17.960;2023-03-05T09:51:44;7.87;;;5.40;;
17725;SDS011;8983;53.156;17.960;2023-03-05T09:54:16;10.93;;;6.10;;
17725;SDS011;8983;53.156;17.960;2023-03-05T09:56:47;6.93;;;5.10;;
17725;SDS011;8983;53.156;17.960;2023-03-05T09:59:24;7.10;;;4.07;;
17725;SDS011;8983;53.156;17.960;2023-03-05T10:01:57;8.80;;;5.27;;
17725;SDS011;8983;53.156;17.960;2023-03-05T10:04:37;7.60;;;5.37;;
17725;SDS011;8983;53.156;17.960;2023-03-05T10:07:11;8.27;;;5.20;;
17725;SDS011;8983;53.156;17.960;2023-03-05T10:09:43;11.87;;;5.70;;
17725;SDS011;8983;53.156;17.960;2023-03-05T10:12:17;8.83;;;5.57;;
17725;SDS011;8983;53.156;17.960;2023-03-05T10:14:53;7.13;;;4.40;;
17725;SDS011;8983;53.156;17.960;2023-03-05T10:17:35;4.40;;;3.47;;
17725;SDS011;8983;53.156;17.960;2023-03-05T10:20:20;5.43;;;3.90;;
17725;SDS011;8983;53.156;17.960;2023-03-05T10:23:25;7.33;;;3.73;;
17725;SDS011;8983;53.156;17.960;2023-03-05T10:26:04;9.17;;;4.60;;
17725;SDS011;8983;53.156;17.960;2023-03-05T10:28:42;6.43;;;3.93;;
17725;SDS011;8983;53.156;17.960;2023-03-05T10:31:18;5.63;;;3.90;;
17725;SDS011;8983;53.156;17.960;2023-03-05T10:34:00;7.73;;;4.33;;
17725;SDS011;8983;53.156;17.960;2023-03-05T10:36:53;7.93;;;4.80;;
17725;SDS011;8983;53.156;17.960;2023-03-05T10:39:40;8.70;;;4.93;;
17725;SDS011;8983;53.156;17.960;2023-03-05T10:42:24;8.67;;;4.67;;
17725;SDS011;8983;53.156;17.960;2023-03-05T10:44:56;8.43;;;5.23;;
17725;SDS011;8983;53.156;17.960;2023-03-05T10:47:26;9.03;;;4.73;;
17725;SDS011;8983;53.156;17.960;2023-03-05T10:49:59;11.33;;;5.23;;
17725;SDS011;8983;53.156;17.960;2023-03-05T10:52:30;8.03;;;4.80;;
17725;SDS011;8983;53.156;17.960;2023-03-05T10:55:10;9.33;;;5.07;;
17725;SDS011;8983;53.156;17.960;2023-03-05T10:57:41;5.10;;;4.07;;
17725;SDS011;8983;53.156;17.960;2023-03-05T11:00:16;8.40;;;4.57;;
17725;SDS011;8983;53.156;17.960;2023-03-05T11:02:56;6.97;;;4.63;;
17725;SDS011;8983;53.156;17.960;2023-03-05T11:05:35;7.33;;;3.87;;
17725;SDS011;8983;53.156;17.960;2023-03-05T11:08:23;6.93;;;4.23;;
17725;SDS011;8983;53.156;17.960;2023-03-05T11:11:04;5.17;;;4.20;;
17725;SDS011;8983;53.156;17.960;2023-03-05T11:13:40;9.43;;;6.40;;
17725;SDS011;8983;53.156;17.960;2023-03-05T11:16:22;8.60;;;4.10;;
17725;SDS011;8983;53.156;17.960;2023-03-05T11:19:10;6.23;;;3.63;;
17725;SDS011;8983;53.156;17.960;2023-03-05T11:21:44;9.73;;;4.40;;
17725;SDS011;8983;53.156;17.960;2023-03-05T11:24:15;6.10;;;3.73;;
17725;SDS011;8983;53.156;17.960;2023-03-05T11:26:46;6.53;;;4.43;;
17725;SDS011;8983;53.156;17.960;2023-03-05T11:29:17;5.90;;;3.50;;
17725;SDS011;8983;53.156;17.960;2023-03-05T11:31:47;5.17;;;3.87;;
17725;SDS011;8983;53.156;17.960;2023-03-05T11:34:28;4.33;;;3.90;;
17725;SDS011;8983;53.156;17.960;2023-03-05T11:37:02;8.87;;;5.13;;
17725;SDS011;8983;53.156;17.960;2023-03-05T11:39:33;7.03;;;4.37;;
17725;SDS011;8983;53.156;17.960;2023-03-05T11:42:05;8.67;;;3.87;;
17725;SDS011;8983;53.156;17.960;2023-03-05T11:44:39;9.83;;;5.40;;
17725;SDS011;8983;53.156;17.960;2023-03-05T11:47:16;10.00;;;4.33;;
17725;SDS011;8983;53.156;17.960;2023-03-05T11:49:51;9.03;;;4.73;;
17725;SDS011;8983;53.156;17.960;2023-03-05T11:52:23;8.63;;;4.33;;
17725;SDS011;8983;53.156;17.960;2023-03-05T11:54:59;10.03;;;4.87;;
17725;SDS011;8983;53.156;17.960;2023-03-05T11:57:32;7.57;;;3.87;;
17725;SDS011;8983;53.156;17.960;2023-03-05T12:00:10;9.00;;;5.03;;
17725;SDS011;8983;53.156;17.960;2023-03-05T12:02:42;8.47;;;4.93;;
17725;SDS011;8983;53.156;17.960;2023-03-05T12:05:14;6.70;;;4.43;;
17725;SDS011;8983;53.156;17.960;2023-03-05T12:07:43;6.13;;;4.33;;
17725;SDS011;8983;53.156;17.960;2023-03-05T12:10:17;8.90;;;5.03;;
17725;SDS011;8983;53.156;17.960;2023-03-05T12:12:47;11.37;;;4.77;;
17725;SDS011;8983;53.156;17.960;2023-03-05T12:18:21;8.07;;;4.80;;
17725;SDS011;8983;53.156;17.960;2023-03-05T12:21:03;6.87;;;4.73;;
17725;SDS011;8983;53.156;17.960;2023-03-05T12:23:44;7.60;;;4.77;;
17725;SDS011;8983;53.156;17.960;2023-03-05T12:26:14;8.50;;;5.73;;
17725;SDS011;8983;53.156;17.960;2023-03-05T12:28:55;5.33;;;4.40;;
17725;SDS011;8983;53.156;17.960;2023-03-05T12:31:25;8.03;;;5.20;;
17725;SDS011;8983;53.156;17.960;2023-03-05T12:34:12;10.70;;;5.63;;
17725;SDS011;8983;53.156;17.960;2023-03-05T12:40:19;8.43;;;4.33;;
17725;SDS011;8983;53.156;17.960;2023-03-05T12:42:53;7.27;;;5.00;;
17725;SDS011;8983;53.156;17.960;2023-03-05T12:45:24;6.37;;;4.07;;
17725;SDS011;8983;53.156;17.960;2023-03-05T12:51:02;6.10;;;4.03;;
17725;SDS011;8983;53.156;17.960;2023-03-05T12:53:30;12.43;;;4.60;;
17725;SDS011;8983;53.156;17.960;2023-03-05T12:56:00;4.83;;;3.80;;
17725;SDS011;8983;53.156;17.960;2023-03-05T12:58:39;6.47;;;4.20;;
17725;SDS011;8983;53.156;17.960;2023-03-05T13:01:13;5.47;;;3.80;;
17725;SDS011;8983;53.156;17.960;2023-03-05T13:03:51;7.37;;;3.97;;
17725;SDS011;8983;53.156;17.960;2023-03-05T13:06:23;7.67;;;4.77;;
17725;SDS011;8983;53.156;17.960;2023-03-05T13:08:57;7.97;;;4.33;;
17725;SDS011;8983;53.156;17.960;2023-03-05T13:11:27;6.30;;;4.40;;
17725;SDS011;8983;53.156;17.960;2023-03-05T13:13:59;5.33;;;4.00;;
17725;SDS011;8983;53.156;17.960;2023-03-05T13:16:28;6.43;;;4.30;;
17725;SDS011;8983;53.156;17.960;2023-03-05T13:19:02;8.00;;;4.57;;
17725;SDS011;8983;53.156;17.960;2023-03-05T13:21:41;5.00;;;4.07;;
17725;SDS011;8983;53.156;17.960;2023-03-05T13:24:14;4.53;;;3.83;;
17725;SDS011;8983;53.156;17.960;2023-03-05T13:26:44;7.43;;;4.43;;
17725;SDS011;8983;53.156;17.960;2023-03-05T13:29:15;6.50;;;4.37;;
17725;SDS011;8983;53.156;17.960;2023-03-05T13:31:44;5.63;;;4.40;;
17725;SDS011;8983;53.156;17.960;2023-03-05T13:34:15;7.30;;;3.97;;
17725;SDS011;8983;53.156;17.960;2023-03-05T13:36:46;6.00;;;3.87;;
17725;SDS011;8983;53.156;17.960;2023-03-05T13:39:19;7.50;;;4.43;;
17725;SDS011;8983;53.156;17.960;2023-03-05T13:41:59;5.00;;;3.97;;
17725;SDS011;8983;53.156;17.960;2023-03-05T13:44:31;5.97;;;3.83;;
17725;SDS011;8983;53.156;17.960;2023-03-05T13:47:08;7.33;;;5.27;;
17725;SDS011;8983;53.156;17.960;2023-03-05T13:49:43;8.07;;;4.13;;
17725;SDS011;8983;53.156;17.960;2023-03-05T13:52:22;5.27;;;3.97;;
17725;SDS011;8983;53.156;17.960;2023-03-05T13:54:50;6.60;;;4.67;;
17725;SDS011;8983;53.156;17.960;2023-03-05T13:57:32;6.37;;;4.47;;
17725;SDS011;8983;53.156;17.960;2023-03-05T14:00:06;5.70;;;4.27;;
17725;SDS011;8983;53.156;17.960;2023-03-05T14:02:49;8.03;;;4.30;;
17725;SDS011;8983;53.156;17.960;2023-03-05T14:05:18;5.13;;;3.97;;
17725;SDS011;8983;53.156;17.960;2023-03-05T14:07:47;5.70;;;4.10;;
17725;SDS011;8983;53.156;17.960;2023-03-05T14:10:27;5.37;;;4.00;;
17725;SDS011;8983;53.156;17.960;2023-03-05T14:12:57;5.93;;;4.03;;
17725;SDS011;8983;53.156;17.960;2023-03-05T14:15:30;5.57;;;3.93;;
17725;SDS011;8983;53.156;17.960;2023-03-05T14:18:15;5.70;;;3.77;;
17725;SDS011;8983;53.156;17.960;2023-03-05T14:20:59;4.47;;;3.73;;
17725;SDS011;8983;53.156;17.960;2023-03-05T14:23:32;6.73;;;4.70;;
17725;SDS011;8983;53.156;17.960;2023-03-05T14:28:58;6.03;;;4.30;;
17725;SDS011;8983;53.156;17.960;2023-03-05T14:31:29;9.50;;;5.30;;
17725;SDS011;8983;53.156;17.960;2023-03-05T14:33:59;3.77;;;2.80;;
17725;SDS011;8983;53.156;17.960;2023-03-05T14:36:29;4.60;;;2.73;;
17725;SDS011;8983;53.156;17.960;2023-03-05T14:38:58;8.13;;;4.20;;
17725;SDS011;8983;53.156;17.960;2023-03-05T14:41:32;8.63;;;5.00;;
17725;SDS011;8983;53.156;17.960;2023-03-05T14:44:08;9.27;;;4.67;;
17725;SDS011;8983;53.156;17.960;2023-03-05T14:46:40;9.07;;;4.53;;
17725;SDS011;8983;53.156;17.960;2023-03-05T14:49:09;9.47;;;4.23;;
17725;SDS011;8983;53.156;17.960;2023-03-05T14:51:38;7.67;;;4.03;;
17725;SDS011;8983;53.156;17.960;2023-03-05T14:54:16;7.30;;;3.90;;
17725;SDS011;8983;53.156;17.960;2023-03-05T14:56:45;7.00;;;3.73;;
17725;SDS011;8983;53.156;17.960;2023-03-05T14:59:15;10.07;;;4.63;;
17725;SDS011;8983;53.156;17.960;2023-03-05T15:01:44;10.77;;;4.80;;
17725;SDS011;8983;53.156;17.960;2023-03-05T15:04:15;17.03;;;8.83;;
17725;SDS011;8983;53.156;17.960;2023-03-05T15:06:44;29.87;;;14.40;;
17725;SDS011;8983;53.156;17.960;2023-03-05T15:09:16;10.50;;;5.70;;
17725;SDS011;8983;53.156;17.960;2023-03-05T15:11:46;6.27;;;3.77;;
17725;SDS011;8983;53.156;17.960;2023-03-05T15:14:15;11.57;;;4.97;;
17725;SDS011;8983;53.156;17.960;2023-03-05T15:16:44;9.43;;;4.20;;
17725;SDS011;8983;53.156;17.960;2023-03-05T15:19:13;6.93;;;3.47;;
17725;SDS011;8983;53.156;17.960;2023-03-05T15:21:42;5.37;;;2.63;;